Flagg Spring, Kentucky
Current Conditions -  °F | °C
As of 10:53 PM on Wednesday 17 Dec 2014 (Local Time) from KLUK Reporting Station
Overcast Overcast  
Wind Chill: 21°   Ceiling: 2100
Heat Index: 28°   Visibility: 10mi
Dew Point: 21°   Wind: 7mph
Humidity: 75%   Direction: 280°W
Pressure: 30.3"   Gusts: NA
Location:  38.8948°N, 84.2968°W
Report Text: KLUK 180353Z 28006KT 10SM OVC021 M02/M06 A3030 RMK AO2 SLP264 T10221061
Loading
Personal Weather Stations






























Interactive Weather Map New forecast layout! Learn more

10-Day Weather Forecast

Advertisements
Track Severe Weather on mobile